Time;durP1;ratioP1;P1;durP2;ratioP2;P2;SDS_P1;SDS_P2;PMS_P1;PMS_P2;Temp;Humidity;BMP_temperature;BMP_pressure;BME280_temperature;BME280_humidity;BME280_pressure;Samples;Min_cycle;Max_cycle;Signal;HPM_P1;HPM_P2
2021/08/12 00:00:04;;;;;;;10.47;8.83;;;16.50;99.90;;;;;;5053452;28;20398;-67
2021/08/12 00:02:29;;;;;;;10.70;9.70;;;16.50;99.90;;;;;;5053339;28;20234;-67
2021/08/12 00:04:55;;;;;;;12.93;10.87;;;16.50;99.90;;;;;;5053058;28;20510;-68
2021/08/12 00:07:21;;;;;;;11.57;10.30;;;16.40;99.90;;;;;;5053493;28;20205;-68
2021/08/12 00:09:47;;;;;;;10.13;9.13;;;16.30;99.90;;;;;;5053608;28;20172;-68
2021/08/12 00:12:12;;;;;;;11.00;10.00;;;16.40;99.90;;;;;;5053398;28;20430;-67
2021/08/12 00:14:38;;;;;;;11.97;9.27;;;16.30;99.90;;;;;;5053408;28;20177;-68
2021/08/12 00:17:03;;;;;;;10.30;9.20;;;16.30;99.90;;;;;;5053337;28;20595;-68
2021/08/12 00:19:29;;;;;;;11.77;10.33;;;16.30;99.90;;;;;;5053409;28;20263;-69
2021/08/12 00:21:54;;;;;;;11.93;10.83;;;16.20;99.90;;;;;;5053317;28;20199;-68
2021/08/12 00:24:21;;;;;;;10.63;9.53;;;16.20;99.90;;;;;;5053615;28;20232;-68
2021/08/12 00:26:48;;;;;;;12.90;9.97;;;16.20;99.90;;;;;;5052633;28;20288;-67
2021/08/12 00:29:14;;;;;;;9.90;9.00;;;16.10;99.90;;;;;;5053414;28;20434;-68
2021/08/12 00:31:39;;;;;;;9.53;8.30;;;16.20;99.90;;;;;;5053197;28;20845;-68
2021/08/12 00:34:05;;;;;;;10.23;9.33;;;16.10;99.90;;;;;;5053195;28;20177;-68
2021/08/12 00:36:30;;;;;;;12.77;9.10;;;16.10;99.90;;;;;;5053286;28;20175;-68
2021/08/12 00:38:56;;;;;;;11.23;10.10;;;16.10;99.90;;;;;;5053146;28;20195;-68
2021/08/12 00:41:21;;;;;;;11.63;9.43;;;16.10;99.90;;;;;;5053062;28;20200;-68
2021/08/12 00:43:47;;;;;;;10.90;8.97;;;16.10;99.90;;;;;;5049885;28;20219;-67
2021/08/12 00:46:12;;;;;;;10.83;9.83;;;16.10;99.90;;;;;;5051757;28;20191;-68
2021/08/12 00:48:38;;;;;;;10.77;9.67;;;16.00;99.90;;;;;;5052801;28;20167;-69
2021/08/12 00:51:03;;;;;;;12.83;9.07;;;16.00;99.90;;;;;;5052669;28;20202;-68
2021/08/12 00:53:29;;;;;;;11.07;10.07;;;16.00;99.90;;;;;;5053063;28;20484;-68
2021/08/12 00:55:54;;;;;;;11.33;10.23;;;16.00;99.90;;;;;;5052784;28;20304;-68
2021/08/12 00:58:20;;;;;;;11.40;10.30;;;16.00;99.90;;;;;;5052931;28;20164;-68
2021/08/12 01:00:48;;;;;;;11.43;10.23;;;16.00;99.90;;;;;;5052587;28;20189;-67
2021/08/12 01:03:14;;;;;;;12.90;10.20;;;16.00;99.90;;;;;;5051175;28;20196;-68
2021/08/12 01:05:57;;;;;;;13.07;11.57;;;15.90;99.90;;;;;;5052813;28;20480;-68
2021/08/12 01:08:48;;;;;;;10.17;9.17;;;16.00;99.90;;;;;;5052537;28;20434;-68
2021/08/12 01:11:35;;;;;;;10.83;9.73;;;16.00;99.90;;;;;;5052434;28;20476;-68
2021/08/12 01:14:45;;;;;;;10.23;9.17;;;15.90;99.90;;;;;;5052550;28;20406;-69
2021/08/12 01:17:15;;;;;;;13.20;12.00;;;15.90;99.90;;;;;;5052288;28;20410;-68
2021/08/12 01:20:11;;;;;;;11.50;10.30;;;15.80;99.90;;;;;;5052278;28;20412;-67
2021/08/12 01:22:47;;;;;;;12.10;10.90;;;15.80;99.90;;;;;;5052284;28;20421;-68
2021/08/12 01:25:20;;;;;;;10.30;9.27;;;15.70;99.90;;;;;;5052298;28;20457;-68
2021/08/12 01:27:49;;;;;;;10.83;9.73;;;15.70;99.90;;;;;;5052184;28;20777;-68
2021/08/12 01:30:22;;;;;;;12.13;10.80;;;15.70;99.90;;;;;;5052118;28;20407;-68
2021/08/12 01:33:04;;;;;;;11.20;9.93;;;15.70;99.90;;;;;;5051802;28;20430;-68
2021/08/12 01:35:32;;;;;;;11.10;9.90;;;15.70;99.90;;;;;;5052117;28;20394;-68
2021/08/12 01:38:01;;;;;;;11.07;9.97;;;15.70;99.90;;;;;;5051926;28;20398;-68
2021/08/12 01:40:29;;;;;;;10.80;9.70;;;15.70;99.90;;;;;;5050486;28;20386;-68
2021/08/12 01:42:56;;;;;;;13.77;10.07;;;15.70;99.90;;;;;;5051907;28;20397;-68
2021/08/12 01:45:22;;;;;;;10.70;9.60;;;15.70;99.90;;;;;;5047559;28;20417;-68
2021/08/12 01:47:48;;;;;;;10.50;9.50;;;15.60;99.90;;;;;;5051614;28;20781;-68
2021/08/12 01:50:16;;;;;;;11.97;10.17;;;15.60;99.90;;;;;;5051705;28;20254;-68
2021/08/12 01:52:46;;;;;;;10.70;9.60;;;15.60;99.90;;;;;;5051508;28;20434;-68
2021/08/12 01:55:12;;;;;;;13.43;11.00;;;15.60;99.90;;;;;;5050526;28;20512;-68
2021/08/12 01:57:40;;;;;;;13.93;11.70;;;15.60;99.90;;;;;;5051487;28;20431;-69
2021/08/12 02:00:07;;;;;;;10.27;9.17;;;15.50;99.90;;;;;;5051703;28;20418;-68
2021/08/12 02:02:34;;;;;;;10.63;9.27;;;15.50;99.90;;;;;;5051281;28;20914;-69
2021/08/12 02:05:01;;;;;;;11.53;10.33;;;15.50;99.90;;;;;;5051661;28;20823;-68
2021/08/12 02:07:28;;;;;;;10.60;9.60;;;15.50;99.90;;;;;;5051566;28;20477;-68
2021/08/12 02:09:55;;;;;;;12.47;11.17;;;15.40;99.90;;;;;;5051702;28;20405;-67
2021/08/12 02:12:20;;;;;;;10.93;9.83;;;15.40;99.90;;;;;;5051553;28;20230;-69
2021/08/12 02:14:46;;;;;;;10.13;9.20;;;15.40;99.90;;;;;;5051224;28;20441;-68
2021/08/12 02:17:11;;;;;;;12.07;10.87;;;15.40;99.90;;;;;;5051059;28;20259;-68
2021/08/12 02:19:37;;;;;;;10.53;9.63;;;15.40;99.90;;;;;;5051044;28;20171;-68
2021/08/12 02:22:11;;;;;;;11.97;10.60;;;15.40;99.90;;;;;;5050926;28;20230;-68
2021/08/12 02:24:44;;;;;;;11.33;10.17;;;15.30;99.90;;;;;;5051168;28;20229;-68
2021/08/12 02:27:15;;;;;;;10.57;9.50;;;15.30;99.90;;;;;;5050874;28;20458;-68
2021/08/12 02:29:41;;;;;;;12.77;9.73;;;15.30;99.90;;;;;;5051017;28;20394;-68
2021/08/12 02:32:11;;;;;;;12.20;10.47;;;15.30;99.90;;;;;;5049049;28;20483;-70
2021/08/12 02:34:39;;;;;;;10.47;9.47;;;15.30;99.90;;;;;;5040584;28;20421;-67
2021/08/12 02:37:07;;;;;;;10.50;9.60;;;15.30;99.90;;;;;;5036667;28;20513;-68
2021/08/12 02:39:34;;;;;;;10.70;9.60;;;15.30;99.90;;;;;;5031684;28;20406;-68
2021/08/12 02:42:02;;;;;;;11.37;10.27;;;15.30;99.90;;;;;;5051461;28;20805;-68
2021/08/12 02:44:30;;;;;;;11.10;9.80;;;15.20;99.90;;;;;;5051168;28;20413;-68
2021/08/12 02:46:58;;;;;;;11.90;9.73;;;15.20;99.90;;;;;;5050701;28;20522;-68
2021/08/12 02:49:27;;;;;;;10.30;9.23;;;15.20;99.90;;;;;;5050869;28;20403;-67
2021/08/12 02:51:54;;;;;;;12.43;11.30;;;15.20;99.90;;;;;;5052445;28;20421;-68
2021/08/12 02:54:20;;;;;;;11.23;9.87;;;15.20;99.90;;;;;;5054945;28;20405;-68
2021/08/12 02:56:46;;;;;;;11.37;10.27;;;15.20;99.90;;;;;;5055043;28;20424;-68
2021/08/12 02:59:13;;;;;;;11.97;10.77;;;15.10;99.90;;;;;;5055100;28;20401;-67
2021/08/12 03:01:40;;;;;;;10.73;9.60;;;15.10;99.90;;;;;;5054776;28;20782;-68
2021/08/12 03:04:06;;;;;;;11.90;10.80;;;15.10;99.90;;;;;;5054752;28;20435;-68
2021/08/12 03:06:33;;;;;;;11.57;10.47;;;15.10;99.90;;;;;;5054636;28;20448;-69
2021/08/12 03:09:00;;;;;;;10.50;9.60;;;15.10;99.90;;;;;;5054451;28;20414;-69
2021/08/12 03:11:25;;;;;;;11.20;10.23;;;15.10;99.90;;;;;;5054312;28;20464;-68
2021/08/12 03:13:53;;;;;;;11.13;9.90;;;15.10;99.90;;;;;;5054531;28;20445;-68
2021/08/12 03:16:19;;;;;;;10.40;9.40;;;15.00;99.90;;;;;;5054836;28;20184;-68
2021/08/12 03:18:44;;;;;;;12.83;10.80;;;15.00;99.90;;;;;;5054851;28;20429;-69
2021/08/12 03:21:12;;;;;;;11.73;10.73;;;15.00;99.90;;;;;;5054671;28;20252;-69
2021/08/12 03:23:39;;;;;;;11.00;9.20;;;15.00;99.90;;;;;;5054696;28;20199;-67
2021/08/12 03:26:06;;;;;;;11.90;10.80;;;15.00;99.90;;;;;;5054236;28;20465;-69
2021/08/12 03:28:31;;;;;;;10.83;9.57;;;15.00;99.90;;;;;;5050936;28;20421;-68
2021/08/12 03:30:58;;;;;;;9.73;8.80;;;14.90;99.90;;;;;;5050745;28;20425;-69
2021/08/12 03:33:24;;;;;;;11.00;10.00;;;14.90;99.90;;;;;;5054074;28;20491;-68
2021/08/12 03:35:50;;;;;;;13.30;12.00;;;14.90;99.90;;;;;;5054191;28;20457;-68
2021/08/12 03:38:15;;;;;;;11.03;9.93;;;14.90;99.90;;;;;;5054016;28;20167;-68
2021/08/12 03:40:41;;;;;;;12.70;11.63;;;14.90;99.90;;;;;;5053852;28;20232;-68
2021/08/12 03:43:06;;;;;;;11.83;10.67;;;14.90;99.90;;;;;;5053925;28;20258;-68
2021/08/12 03:45:32;;;;;;;12.83;10.67;;;14.90;99.90;;;;;;5053815;28;20170;-69
2021/08/12 03:47:57;;;;;;;11.83;10.73;;;14.90;99.90;;;;;;5053844;28;20171;-69
2021/08/12 03:50:23;;;;;;;12.87;11.23;;;14.90;99.90;;;;;;5053869;28;20186;-68
2021/08/12 03:52:48;;;;;;;13.37;12.07;;;14.90;99.90;;;;;;5053702;28;20190;-68
2021/08/12 03:55:14;;;;;;;12.23;10.67;;;14.90;99.90;;;;;;5053931;28;20171;-69
2021/08/12 03:57:43;;;;;;;12.97;11.67;;;14.90;99.90;;;;;;5053537;28;20254;-68
2021/08/12 04:00:10;;;;;;;12.37;11.17;;;15.00;99.90;;;;;;5053932;28;20674;-68
2021/08/12 04:02:35;;;;;;;12.43;10.83;;;15.00;99.90;;;;;;5052059;28;20425;-68
2021/08/12 04:05:00;;;;;;;12.93;11.37;;;15.00;99.90;;;;;;5053559;28;20423;-68
2021/08/12 04:07:26;;;;;;;13.40;12.03;;;15.00;99.90;;;;;;5053180;28;20215;-68
2021/08/12 04:09:51;;;;;;;13.17;11.80;;;15.00;99.90;;;;;;5053499;28;20266;-68
2021/08/12 04:12:17;;;;;;;11.40;10.40;;;15.10;99.90;;;;;;5053225;28;20341;-68
2021/08/12 04:14:42;;;;;;;11.77;10.57;;;15.10;99.90;;;;;;5053437;28;20182;-68
2021/08/12 04:17:08;;;;;;;14.07;12.30;;;15.10;99.90;;;;;;5053437;28;20202;-69
2021/08/12 04:19:33;;;;;;;12.77;11.57;;;15.10;99.90;;;;;;5053427;28;20182;-68
2021/08/12 04:21:59;;;;;;;13.47;12.07;;;15.20;99.90;;;;;;5053256;28;20262;-68
2021/08/12 04:24:24;;;;;;;12.83;11.63;;;15.20;99.90;;;;;;5053308;28;20544;-69
2021/08/12 04:26:50;;;;;;;13.03;11.57;;;15.30;99.90;;;;;;5053279;28;20289;-68
2021/08/12 04:29:15;;;;;;;13.00;10.50;;;15.30;99.90;;;;;;5046613;28;20168;-68
2021/08/12 04:31:41;;;;;;;12.40;11.00;;;15.30;99.90;;;;;;5053070;28;20195;-69
2021/08/12 04:34:06;;;;;;;12.57;11.27;;;15.40;99.90;;;;;;5053206;28;20175;-68
2021/08/12 04:36:32;;;;;;;13.73;12.37;;;15.40;99.90;;;;;;5053029;28;20665;-68
2021/08/12 04:38:57;;;;;;;12.40;11.20;;;15.50;99.90;;;;;;5053239;28;20727;-68
2021/08/12 04:41:23;;;;;;;12.83;11.57;;;15.60;99.90;;;;;;5052965;28;20191;-69
2021/08/12 04:43:48;;;;;;;15.73;12.07;;;15.60;99.90;;;;;;5052846;28;20168;-69
2021/08/12 04:46:14;;;;;;;13.60;11.00;;;15.70;99.90;;;;;;5052968;28;20191;-69
2021/08/12 04:48:39;;;;;;;14.07;11.77;;;15.70;99.90;;;;;;5052940;28;20159;-68
2021/08/12 04:51:05;;;;;;;13.50;12.10;;;15.80;99.90;;;;;;5052745;28;20197;-68
2021/08/12 04:53:30;;;;;;;12.40;11.10;;;15.90;99.90;;;;;;5052627;28;20353;-68
2021/08/12 04:55:55;;;;;;;11.60;10.60;;;15.90;99.90;;;;;;5052910;28;20699;-69
2021/08/12 04:58:21;;;;;;;11.50;10.30;;;16.00;99.90;;;;;;5052898;28;20212;-68
2021/08/12 05:00:46;;;;;;;13.60;11.77;;;16.10;99.90;;;;;;5052766;28;20195;-68
2021/08/12 05:03:12;;;;;;;13.37;11.97;;;16.10;99.90;;;;;;5052403;28;20274;-68
2021/08/12 05:05:38;;;;;;;12.60;11.37;;;16.20;99.90;;;;;;5052426;28;20181;-68
2021/08/12 05:08:04;;;;;;;15.20;11.13;;;16.40;99.90;;;;;;5052323;28;20924;-67
2021/08/12 05:10:29;;;;;;;12.40;11.30;;;16.60;99.90;;;;;;5052378;28;20169;-67
2021/08/12 05:12:54;;;;;;;13.03;11.63;;;16.60;99.90;;;;;;5052114;28;20250;-68
2021/08/12 05:15:20;;;;;;;11.60;10.50;;;16.70;99.90;;;;;;5052373;28;20169;-68
2021/08/12 05:17:46;;;;;;;13.47;10.80;;;16.80;99.90;;;;;;5052046;28;20557;-67
2021/08/12 05:20:11;;;;;;;12.73;11.53;;;16.90;99.90;;;;;;5052358;28;20176;-68
2021/08/12 05:22:37;;;;;;;14.20;12.30;;;17.00;99.90;;;;;;5052056;28;20200;-67
2021/08/12 05:25:04;;;;;;;12.27;10.87;;;17.10;99.90;;;;;;5051740;28;20186;-67
2021/08/12 05:27:30;;;;;;;11.37;10.30;;;17.20;99.90;;;;;;5050022;28;20202;-67
2021/08/12 05:29:55;;;;;;;10.83;9.53;;;17.80;99.90;;;;;;5051420;28;20828;-67
2021/08/12 05:32:21;;;;;;;10.37;9.37;;;18.60;99.90;;;;;;5051468;28;20200;-67
2021/08/12 05:34:46;;;;;;;10.00;9.00;;;18.70;99.90;;;;;;5051685;28;20171;-69
2021/08/12 05:37:12;;;;;;;9.93;8.30;;;19.00;99.90;;;;;;5051532;28;20182;-68
2021/08/12 05:39:37;;;;;;;8.37;7.57;;;19.40;99.90;;;;;;5051670;28;20638;-67
2021/08/12 05:42:03;;;;;;;8.80;7.90;;;19.60;99.90;;;;;;5051667;28;20199;-69
2021/08/12 05:44:28;;;;;;;13.00;8.00;;;19.80;99.90;;;;;;5051985;28;20203;-68
2021/08/12 05:46:54;;;;;;;8.00;7.30;;;20.00;99.90;;;;;;5051750;28;20665;-68
2021/08/12 05:49:24;;;;;;;9.27;8.37;;;20.30;99.90;;;;;;5051751;28;20167;-68
2021/08/12 05:51:53;;;;;;;8.20;7.40;;;20.70;99.90;;;;;;5051396;28;20194;-68
2021/08/12 05:54:19;;;;;;;10.97;9.23;;;21.00;99.90;;;;;;5051514;28;20492;-69
2021/08/12 05:56:45;;;;;;;10.30;9.20;;;21.40;99.90;;;;;;5051604;28;20418;-67
2021/08/12 05:59:10;;;;;;;9.60;8.47;;;21.50;99.90;;;;;;5051340;28;20420;-67
2021/08/12 06:01:36;;;;;;;14.10;8.87;;;21.60;99.90;;;;;;5050985;28;20243;-68
2021/08/12 06:04:01;;;;;;;11.73;8.77;;;22.10;99.90;;;;;;5051134;28;20189;-68
2021/08/12 06:06:27;;;;;;;9.17;8.27;;;22.40;99.90;;;;;;5050984;28;20193;-67
2021/08/12 06:08:53;;;;;;;8.73;7.90;;;22.70;99.90;;;;;;5051127;28;20174;-68
2021/08/12 06:11:18;;;;;;;7.20;6.60;;;23.00;99.90;;;;;;5050802;28;20919;-68
2021/08/12 06:13:44;;;;;;;10.97;7.73;;;23.10;99.90;;;;;;5051153;28;20182;-68
2021/08/12 06:16:10;;;;;;;7.30;6.60;;;23.40;99.90;;;;;;5051806;28;20236;-68
2021/08/12 06:18:35;;;;;;;6.53;5.70;;;23.30;99.90;;;;;;5051320;28;20189;-68
2021/08/12 06:21:01;;;;;;;8.10;7.30;;;23.50;99.90;;;;;;5051205;28;20425;-68
2021/08/12 06:23:26;;;;;;;10.83;6.20;;;23.40;99.90;;;;;;5051107;28;20220;-69
2021/08/12 06:25:52;;;;;;;6.57;5.87;;;23.60;99.90;;;;;;5050412;28;20199;-68
2021/08/12 06:28:17;;;;;;;10.87;5.97;;;24.10;99.90;;;;;;5045469;28;20169;-67
2021/08/12 06:30:43;;;;;;;5.83;5.33;;;23.80;99.90;;;;;;5050957;28;20173;-67
2021/08/12 06:33:08;;;;;;;6.00;5.40;;;24.00;99.90;;;;;;5050908;28;20250;-69
2021/08/12 06:35:35;;;;;;;5.83;5.33;;;24.50;99.90;;;;;;5050553;28;20195;-68
2021/08/12 06:38:02;;;;;;;5.97;5.23;;;24.90;99.90;;;;;;5050863;28;20196;-69
2021/08/12 06:40:28;;;;;;;5.63;5.03;;;25.50;99.90;;;;;;5050478;28;20421;-68
2021/08/12 06:42:54;;;;;;;6.00;5.40;;;25.40;99.90;;;;;;5050659;28;20409;-67
2021/08/12 06:45:20;;;;;;;4.70;4.30;;;25.60;99.90;;;;;;5050590;28;20485;-67
2021/08/12 06:47:49;;;;;;;8.07;4.37;;;25.10;99.90;;;;;;5050333;28;20485;-67
2021/08/12 06:50:17;;;;;;;4.13;3.73;;;25.30;99.90;;;;;;5050394;28;20413;-67
2021/08/12 06:52:43;;;;;;;6.40;3.27;;;25.60;99.90;;;;;;5050384;28;20568;-68
2021/08/12 06:55:09;;;;;;;3.43;2.93;;;26.20;99.90;;;;;;5050528;28;20877;-67
2021/08/12 06:57:34;;;;;;;3.63;2.97;;;25.80;99.90;;;;;;5050396;28;20429;-67
2021/08/12 07:00:00;;;;;;;2.60;2.40;;;25.70;99.90;;;;;;5050643;28;20478;-68
2021/08/12 07:02:25;;;;;;;6.33;2.63;;;27.20;99.90;;;;;;5050869;28;20183;-68
2021/08/12 07:04:51;;;;;;;3.90;3.10;;;27.20;99.90;;;;;;5050771;28;20607;-69
2021/08/12 07:07:17;;;;;;;4.00;2.60;;;27.40;99.90;;;;;;5050589;28;20190;-67
2021/08/12 07:09:42;;;;;;;3.00;2.60;;;26.10;99.90;;;;;;5050755;28;20178;-68
2021/08/12 07:12:08;;;;;;;3.70;2.80;;;26.50;99.90;;;;;;5050831;28;20187;-68
2021/08/12 07:14:34;;;;;;;3.40;2.93;;;27.10;99.90;;;;;;5050738;28;20568;-68
2021/08/12 07:17:00;;;;;;;3.47;2.50;;;26.70;99.90;;;;;;5050654;28;20412;-68
2021/08/12 07:19:26;;;;;;;4.00;2.80;;;26.10;99.90;;;;;;5050632;28;20167;-68
2021/08/12 07:21:52;;;;;;;3.10;2.80;;;26.20;99.90;;;;;;5050750;28;20281;-67
2021/08/12 07:24:18;;;;;;;3.97;2.13;;;27.30;99.90;;;;;;5050777;28;20497;-68
2021/08/12 07:26:46;;;;;;;3.17;2.73;;;27.70;99.90;;;;;;5049504;28;20201;-69
2021/08/12 07:29:12;;;;;;;3.27;2.90;;;28.50;98.70;;;;;;5050612;28;20171;-69
2021/08/12 07:31:37;;;;;;;3.13;2.83;;;28.90;98.90;;;;;;5050418;28;20816;-67
2021/08/12 07:34:03;;;;;;;4.50;2.57;;;28.70;97.40;;;;;;5050640;28;20171;-68
2021/08/12 07:36:28;;;;;;;3.83;3.03;;;27.00;99.40;;;;;;5052535;28;20197;-67
2021/08/12 07:38:54;;;;;;;3.13;2.80;;;28.30;99.60;;;;;;5054392;28;20544;-67
2021/08/12 07:41:19;;;;;;;3.80;2.73;;;28.00;99.90;;;;;;5054159;28;20195;-67
2021/08/12 07:43:45;;;;;;;3.03;2.83;;;29.60;96.40;;;;;;5054298;28;20185;-68
2021/08/12 07:46:10;;;;;;;3.83;2.67;;;28.10;97.60;;;;;;5054161;28;20257;-67
2021/08/12 07:48:52;;;;;;;3.13;2.80;;;27.90;98.90;;;;;;5053922;28;20166;-68
2021/08/12 07:51:23;;;;;;;3.07;2.60;;;29.50;96.20;;;;;;5049243;28;20194;-69
2021/08/12 07:53:53;;;;;;;4.80;2.83;;;28.90;94.60;;;;;;5033126;28;20406;-68
2021/08/12 07:56:19;;;;;;;4.00;3.60;;;27.50;96.90;;;;;;5032473;28;20421;-69
2021/08/12 07:58:46;;;;;;;4.60;3.33;;;27.40;97.30;;;;;;5052939;28;20413;-70
2021/08/12 08:01:11;;;;;;;3.30;3.00;;;26.40;98.10;;;;;;5053527;28;20479;-72
2021/08/12 08:03:36;;;;;;;3.73;3.20;;;26.80;97.50;;;;;;5047783;28;20446;-71
2021/08/12 08:06:02;;;;;;;5.37;2.90;;;28.10;97.50;;;;;;5053510;28;20862;-70
2021/08/12 08:08:28;;;;;;;2.90;2.47;;;28.50;96.70;;;;;;5053533;28;20171;-68
2021/08/12 08:10:54;;;;;;;3.30;2.40;;;27.60;96.70;;;;;;5037499;28;20194;-68
2021/08/12 08:13:20;;;;;;;3.13;2.37;;;29.40;94.70;;;;;;5047246;28;20179;-69
2021/08/12 08:15:45;;;;;;;2.47;2.27;;;29.60;94.00;;;;;;5035499;28;20476;-69
2021/08/12 08:18:11;;;;;;;2.50;2.03;;;29.90;93.30;;;;;;5053451;28;20664;-67
2021/08/12 08:20:36;;;;;;;3.57;2.60;;;30.20;91.40;;;;;;5043155;28;20631;-68
2021/08/12 08:23:10;;;;;;;2.80;2.10;;;29.00;94.90;;;;;;5047318;28;20175;-69
2021/08/12 08:25:36;;;;;;;2.47;2.23;;;30.60;90.70;;;;;;5053488;28;20191;-69
2021/08/12 08:28:03;;;;;;;2.97;2.67;;;29.60;90.50;;;;;;5050080;28;20914;-69
2021/08/12 08:30:30;;;;;;;3.20;3.00;;;28.50;92.90;;;;;;5054349;28;20460;-68
2021/08/12 08:32:56;;;;;;;8.67;7.87;;;30.40;90.60;;;;;;5053833;28;20909;-68
2021/08/12 08:35:25;;;;;;;7.50;6.80;;;29.90;91.30;;;;;;5053159;28;20453;-68
2021/08/12 08:37:50;;;;;;;5.73;4.90;;;29.50;91.50;;;;;;5039897;28;20426;-68
2021/08/12 08:40:16;;;;;;;14.77;13.33;;;28.90;91.70;;;;;;5032923;28;20470;-69
2021/08/12 08:42:42;;;;;;;4.10;3.20;;;28.60;92.10;;;;;;5032696;28;20591;-67
2021/08/12 08:45:09;;;;;;;19.23;14.43;;;28.30;92.90;;;;;;5040497;28;20252;-67
2021/08/12 08:47:36;;;;;;;4.33;3.93;;;28.70;93.90;;;;;;5037102;28;20454;-68
2021/08/12 08:50:03;;;;;;;2.97;2.73;;;28.80;92.90;;;;;;5032805;28;20450;-67
2021/08/12 08:52:29;;;;;;;3.27;2.90;;;29.60;90.80;;;;;;5032127;28;20449;-68
2021/08/12 08:54:55;;;;;;;5.63;5.13;;;29.40;91.30;;;;;;5042939;28;20421;-68
2021/08/12 08:57:21;;;;;;;3.20;2.83;;;28.10;91.50;;;;;;5052062;28;20187;-67
2021/08/12 08:59:47;;;;;;;2.53;2.33;;;27.60;93.90;;;;;;5052066;28;20456;-69
2021/08/12 09:02:12;;;;;;;3.03;2.73;;;28.20;93.10;;;;;;5052615;28;20229;-68
2021/08/12 09:04:38;;;;;;;7.53;6.77;;;28.60;91.90;;;;;;5037705;28;20595;-68
2021/08/12 09:07:19;;;;;;;12.30;11.13;;;29.40;90.30;;;;;;5049356;28;20203;-67
2021/08/12 09:09:45;;;;;;;6.50;5.90;;;28.70;91.70;;;;;;5035368;28;20170;-69
2021/08/12 09:12:10;;;;;;;2.80;2.57;;;29.80;86.90;;;;;;5049046;28;20790;-68
2021/08/12 09:14:41;;;;;;;11.10;10.10;;;29.90;88.50;;;;;;5052022;28;20220;-73
2021/08/12 09:17:18;;;;;;;3.20;2.93;;;29.70;90.10;;;;;;5046423;28;20206;-68
2021/08/12 09:20:03;;;;;;;5.43;4.90;;;28.50;88.80;;;;;;5037573;28;20433;-68
2021/08/12 09:22:30;;;;;;;4.17;3.77;;;28.60;90.90;;;;;;5031249;28;20434;-67
2021/08/12 09:24:56;;;;;;;5.83;2.27;;;29.20;89.60;;;;;;5031653;28;20463;-68
2021/08/12 09:27:22;;;;;;;2.33;2.13;;;28.60;87.90;;;;;;5031946;28;20462;-66
2021/08/12 09:29:48;;;;;;;4.00;2.37;;;29.30;87.70;;;;;;5049901;28;20179;-68
2021/08/12 09:32:16;;;;;;;2.37;2.17;;;28.30;87.90;;;;;;5051697;28;20498;-68
2021/08/12 09:34:45;;;;;;;4.27;2.57;;;28.60;85.50;;;;;;5048364;28;20674;-67
2021/08/12 09:37:12;;;;;;;2.87;2.20;;;27.90;87.60;;;;;;5046946;28;20832;-68
2021/08/12 09:39:39;;;;;;;2.43;2.23;;;28.30;90.00;;;;;;5042920;28;20421;-68
2021/08/12 09:42:05;;;;;;;3.17;2.97;;;28.40;89.60;;;;;;5031631;28;20430;-68
2021/08/12 09:44:54;;;;;;;3.43;2.50;;;28.70;86.50;;;;;;5031920;28;20418;-68
2021/08/12 09:47:19;;;;;;;2.33;2.13;;;27.70;87.90;;;;;;5041513;28;20457;-69
2021/08/12 09:49:51;;;;;;;2.70;2.50;;;27.90;87.30;;;;;;5044721;28;20464;-69
2021/08/12 09:52:39;;;;;;;2.60;2.40;;;28.80;89.00;;;;;;5031795;28;20280;-67
2021/08/12 09:55:19;;;;;;;7.13;6.40;;;29.00;87.70;;;;;;5030646;28;20422;-68
2021/08/12 09:57:47;;;;;;;7.80;6.90;;;28.80;86.30;;;;;;5035876;28;20432;-68
2021/08/12 10:00:44;;;;;;;3.27;2.63;;;28.50;85.20;;;;;;5047994;28;20418;-68
2021/08/12 10:03:32;;;;;;;3.00;2.20;;;28.80;79.90;;;;;;5046436;28;20437;-69
2021/08/12 10:06:04;;;;;;;6.10;5.53;;;29.30;81.10;;;;;;5044934;28;20947;-69
2021/08/12 10:08:32;;;;;;;8.20;7.33;;;28.90;82.80;;;;;;5045966;28;20479;-69
2021/08/12 10:11:31;;;;;;;5.17;3.43;;;28.30;87.80;;;;;;5048833;28;20500;-69
2021/08/12 10:14:01;;;;;;;5.90;5.07;;;27.90;90.00;;;;;;5048941;28;20408;-73
2021/08/12 10:16:28;;;;;;;4.80;3.90;;;27.30;89.10;;;;;;5051355;28;20542;-70
2021/08/12 10:18:55;;;;;;;7.00;5.83;;;27.80;87.70;;;;;;5046065;28;20725;-70
2021/08/12 10:21:21;;;;;;;19.97;13.97;;;28.10;86.60;;;;;;5035101;28;20527;-75
2021/08/12 10:23:50;;;;;;;5.47;4.97;;;27.50;87.70;;;;;;5047580;28;20421;-76
2021/08/12 10:26:18;;;;;;;8.53;4.80;;;27.00;90.10;;;;;;5051106;28;20461;-74
2021/08/12 10:28:46;;;;;;;3.30;3.00;;;26.40;89.80;;;;;;5039360;28;20896;-71
2021/08/12 10:31:18;;;;;;;3.60;2.73;;;26.00;90.30;;;;;;5040475;28;20462;-70
2021/08/12 10:33:44;;;;;;;4.63;3.50;;;26.30;86.60;;;;;;5051470;28;20779;-69
2021/08/12 10:36:10;;;;;;;2.53;2.33;;;26.80;85.70;;;;;;5052008;28;20450;-69
2021/08/12 10:38:35;;;;;;;7.23;4.40;;;27.00;86.70;;;;;;5034385;28;20204;-69
2021/08/12 10:41:03;;;;;;;4.77;2.87;;;27.00;87.90;;;;;;5051229;28;20279;-69
2021/08/12 10:43:29;;;;;;;6.37;4.23;;;27.30;90.70;;;;;;5050905;28;20225;-70
2021/08/12 10:46:00;;;;;;;9.30;6.93;;;27.50;89.80;;;;;;5035900;28;22330;-69
2021/08/12 10:48:29;;;;;;;3.23;2.43;;;27.30;88.30;;;;;;5048642;28;20790;-69
2021/08/12 10:51:12;;;;;;;8.53;6.63;;;27.60;89.50;;;;;;5044774;28;20445;-68
2021/08/12 10:54:05;;;;;;;9.30;7.63;;;27.40;89.50;;;;;;5031118;28;20515;-68
2021/08/12 10:56:39;;;;;;;11.43;10.27;;;27.40;88.80;;;;;;5031044;28;20533;-69
2021/08/12 10:59:05;;;;;;;3.13;2.67;;;27.20;87.70;;;;;;5031282;28;20999;-70
2021/08/12 11:01:33;;;;;;;2.43;2.23;;;27.60;84.50;;;;;;5031050;28;20818;-69
2021/08/12 11:04:02;;;;;;;3.13;2.93;;;26.90;82.30;;;;;;5032224;28;20951;-70
2021/08/12 11:06:39;;;;;;;3.83;2.90;;;26.60;83.60;;;;;;5051682;28;20545;-68
2021/08/12 11:09:07;;;;;;;2.63;2.43;;;26.50;82.20;;;;;;5051235;28;20505;-69
2021/08/12 11:11:33;;;;;;;2.70;2.43;;;26.70;83.10;;;;;;5044613;28;20452;-68
2021/08/12 11:14:23;;;;;;;4.70;3.57;;;26.70;83.30;;;;;;5048192;28;20432;-68
2021/08/12 11:16:49;;;;;;;2.57;2.20;;;27.00;84.80;;;;;;5049838;28;20189;-70
2021/08/12 11:19:21;;;;;;;4.50;2.80;;;27.40;82.20;;;;;;5049772;28;20442;-70
2021/08/12 11:21:48;;;;;;;3.73;2.60;;;27.20;83.00;;;;;;5035189;28;21054;-69
2021/08/12 11:24:25;;;;;;;3.57;3.27;;;27.10;82.90;;;;;;5034596;28;20519;-70
2021/08/12 11:26:53;;;;;;;4.53;4.13;;;27.30;83.60;;;;;;5034084;28;20611;-70
2021/08/12 11:31:57;;;;;;;4.03;3.63;;;27.40;77.40;;;;;;5053097;28;20568;-69
2021/08/12 11:34:51;;;;;;;2.50;2.30;;;27.00;80.40;;;;;;5038095;28;20412;-68
2021/08/12 11:37:29;;;;;;;2.67;2.43;;;26.80;81.10;;;;;;5046261;28;20935;-68
2021/08/12 11:40:00;;;;;;;3.30;2.33;;;26.10;79.00;;;;;;5033850;28;20433;-69
2021/08/12 11:42:31;;;;;;;2.70;2.50;;;26.40;77.90;;;;;;5038864;28;20433;-74
2021/08/12 11:45:03;;;;;;;2.50;1.97;;;26.70;78.30;;;;;;5052093;28;20424;-69
2021/08/12 11:47:29;;;;;;;4.37;3.80;;;26.50;81.00;;;;;;5033958;28;20548;-71
2021/08/12 11:50:00;;;;;;;3.03;2.80;;;26.60;81.30;;;;;;5044192;28;20516;-69
2021/08/12 11:52:38;;;;;;;2.90;2.70;;;26.50;82.80;;;;;;5032628;28;20202;-69
2021/08/12 11:55:09;;;;;;;4.30;2.60;;;26.70;80.50;;;;;;5040122;28;20415;-69
2021/08/12 11:57:57;;;;;;;2.60;2.40;;;26.70;81.20;;;;;;5036706;28;20420;-69
2021/08/12 12:00:34;;;;;;;2.83;2.63;;;26.60;82.90;;;;;;5035877;28;20430;-70
2021/08/12 12:03:04;;;;;;;6.80;3.17;;;26.70;83.10;;;;;;5052592;28;20425;-70
2021/08/12 12:05:38;;;;;;;2.43;2.27;;;27.10;82.50;;;;;;5053635;28;20425;-69
2021/08/12 12:08:14;;;;;;;3.10;2.47;;;27.00;81.00;;;;;;5047853;28;20436;-69
2021/08/12 12:10:42;;;;;;;2.53;2.23;;;27.10;80.70;;;;;;5036848;28;20761;-69
2021/08/12 12:13:15;;;;;;;4.03;3.53;;;27.00;82.40;;;;;;5035578;28;20438;-69
2021/08/12 12:15:44;;;;;;;2.80;2.60;;;26.90;84.00;;;;;;5053859;28;20421;-70
2021/08/12 12:18:12;;;;;;;4.30;3.07;;;26.90;81.00;;;;;;5053329;28;20772;-68
2021/08/12 12:20:41;;;;;;;4.40;4.10;;;26.90;82.10;;;;;;5052527;28;20497;-68
2021/08/12 12:23:11;;;;;;;2.73;1.93;;;27.00;81.60;;;;;;5034735;28;20422;-68
2021/08/12 12:25:42;;;;;;;4.63;2.50;;;27.10;78.20;;;;;;5053192;28;20455;-69
2021/08/12 12:28:11;;;;;;;2.57;2.37;;;26.90;77.70;;;;;;5053043;28;20436;-68
2021/08/12 12:30:36;;;;;;;4.60;4.20;;;26.40;78.60;;;;;;5051615;28;20416;-68
2021/08/12 12:33:10;;;;;;;4.07;3.03;;;26.10;81.30;;;;;;5052481;28;20412;-68
2021/08/12 12:35:39;;;;;;;4.60;4.00;;;26.50;80.70;;;;;;5046850;28;20193;-68
2021/08/12 12:38:07;;;;;;;3.60;2.77;;;27.00;79.00;;;;;;5043009;28;20431;-69
2021/08/12 12:40:34;;;;;;;2.83;2.63;;;27.10;77.80;;;;;;5049741;28;21013;-69
2021/08/12 12:43:01;;;;;;;2.90;2.63;;;26.90;75.90;;;;;;5033102;28;20772;-70
2021/08/12 12:45:29;;;;;;;3.00;2.80;;;26.60;76.70;;;;;;5032983;28;20438;-69